createdAt,value
2023-05-14T00:03:00.230Z,3.17
2023-05-14T00:08:03.788Z,3.35
2023-05-14T00:13:09.551Z,3.47
2023-05-14T00:18:14.182Z,3.33
2023-05-14T00:23:17.977Z,3.03
2023-05-14T00:28:21.929Z,3.15
2023-05-14T00:33:26.689Z,3.20
2023-05-14T00:38:30.716Z,3.67
2023-05-14T00:43:35.042Z,3.03
2023-05-14T00:48:39.846Z,3.30
2023-05-14T00:53:43.129Z,3.63
2023-05-14T00:58:47.138Z,3.17
2023-05-14T01:03:53.528Z,3.38
2023-05-14T01:09:26.152Z,3.03
2023-05-14T01:14:38.981Z,3.08
2023-05-14T01:19:45.730Z,3.00
2023-05-14T01:24:50.934Z,3.53
2023-05-14T01:30:00.979Z,3.22
2023-05-14T01:35:05.390Z,3.13
2023-05-14T01:40:13.197Z,3.40
2023-05-14T01:45:16.900Z,3.67
2023-05-14T01:50:22.012Z,3.13
2023-05-14T01:55:27.064Z,3.45
2023-05-14T02:00:34.063Z,3.47
2023-05-14T02:05:37.372Z,3.70
2023-05-14T02:10:45.920Z,3.65
2023-05-14T02:15:52.008Z,4.13
2023-05-14T02:20:55.607Z,3.58
2023-05-14T02:26:00.226Z,3.80
2023-05-14T02:31:03.656Z,3.92
2023-05-14T02:36:07.323Z,4.05
2023-05-14T02:41:11.864Z,4.07
2023-05-14T02:46:15.202Z,3.90
2023-05-14T02:51:18.850Z,4.38
2023-05-14T02:56:23.671Z,4.22
2023-05-14T03:01:26.930Z,3.92
2023-05-14T03:06:31.341Z,4.32
2023-05-14T03:11:36.033Z,4.10
2023-05-14T03:16:40.163Z,3.97
2023-05-14T03:21:43.496Z,4.63
2023-05-14T03:26:48.136Z,3.97
2023-05-14T03:31:51.587Z,4.47
2023-05-14T03:36:54.882Z,4.18
2023-05-14T03:41:59.820Z,3.80
2023-05-14T03:47:02.986Z,4.20
2023-05-14T03:52:06.302Z,4.50
2023-05-14T03:57:11.026Z,4.03
2023-05-14T04:02:14.251Z,4.03
2023-05-14T04:07:17.519Z,4.38
2023-05-14T04:12:22.461Z,3.53
2023-05-14T04:17:25.798Z,3.70
2023-05-14T04:22:28.979Z,3.97
2023-05-14T04:27:34.904Z,3.85
2023-05-14T04:32:38.282Z,3.83
2023-05-14T04:37:41.950Z,3.90
2023-05-14T04:42:46.747Z,3.67
2023-05-14T04:47:50.128Z,3.72
2023-05-14T04:52:55.904Z,3.80
2023-05-14T04:58:00.591Z,3.60
2023-05-14T05:03:04.194Z,4.05
2023-05-14T05:08:07.573Z,3.95
2023-05-14T05:13:12.176Z,4.00
2023-05-14T05:18:15.596Z,4.10
2023-05-14T05:23:18.803Z,3.80
2023-05-14T05:28:23.543Z,3.70
2023-05-14T05:33:27.067Z,3.65
2023-05-14T05:38:30.394Z,3.90
2023-05-14T05:43:34.944Z,3.72
2023-05-14T05:48:38.138Z,3.25
2023-05-14T05:53:41.373Z,3.38
2023-05-14T05:58:45.987Z,3.40
2023-05-14T06:03:49.328Z,3.13
2023-05-14T06:08:52.736Z,3.17
2023-05-14T06:13:57.468Z,3.03
2023-05-14T06:19:00.647Z,3.20
2023-05-14T06:24:04.115Z,3.10
2023-05-14T06:29:08.791Z,3.03
2023-05-14T06:34:17.283Z,3.35
2023-05-14T06:39:20.486Z,3.10
2023-05-14T06:44:27.156Z,2.63
2023-05-14T06:49:30.497Z,3.38
2023-05-14T06:54:33.676Z,3.17
2023-05-14T06:59:38.379Z,2.50
2023-05-14T07:04:42.167Z,2.70
2023-05-14T07:09:49.007Z,3.70
2023-05-14T07:14:53.747Z,3.20
2023-05-14T07:19:56.960Z,3.30
2023-05-14T07:25:00.248Z,3.05
2023-05-14T07:30:05.191Z,3.05
2023-05-14T07:35:09.441Z,3.33
2023-05-14T07:40:13.112Z,2.60
2023-05-14T07:45:17.865Z,2.42
2023-05-14T07:50:21.257Z,2.83
2023-05-14T07:55:24.788Z,2.42
2023-05-14T08:00:32.074Z,2.85
2023-05-14T08:05:35.379Z,2.95
2023-05-14T08:10:38.837Z,2.90
2023-05-14T08:15:43.501Z,2.97
2023-05-14T08:20:47.229Z,3.08
2023-05-14T08:25:50.398Z,3.10
2023-05-14T08:30:54.999Z,3.00
2023-05-14T08:36:00.599Z,3.10
2023-05-14T08:41:06.692Z,3.15
2023-05-14T08:46:15.232Z,2.90
2023-05-14T08:51:18.452Z,3.17
2023-05-14T08:56:22.042Z,3.30
2023-05-14T09:01:27.255Z,3.22
2023-05-14T09:06:33.092Z,2.72
2023-05-14T09:11:41.615Z,3.40
2023-05-14T09:16:48.295Z,3.50
2023-05-14T09:21:51.749Z,2.95
2023-05-14T09:26:57.385Z,3.05
2023-05-14T09:32:05.718Z,2.72
2023-05-14T09:37:10.585Z,3.00
2023-05-14T09:42:13.784Z,3.03
2023-05-14T09:47:19.025Z,2.60
2023-05-14T09:52:22.281Z,3.58
2023-05-14T09:57:26.885Z,2.83
2023-05-14T10:02:38.274Z,2.60
2023-05-14T10:07:47.682Z,2.60
2023-05-14T10:12:54.580Z,2.55
2023-05-14T10:18:04.776Z,2.60
2023-05-14T10:23:08.231Z,2.50
2023-05-14T10:28:11.917Z,2.38
2023-05-14T10:33:18.536Z,2.30
2023-05-14T10:38:24.499Z,2.97
2023-05-14T10:43:30.994Z,2.55
2023-05-14T10:48:38.016Z,2.47
2023-05-14T10:53:43.352Z,2.53
2023-05-14T10:58:47.404Z,2.67
2023-05-14T11:03:56.112Z,3.05
2023-05-14T11:09:02.008Z,2.55
2023-05-14T11:14:05.321Z,2.70
2023-05-14T11:19:10.193Z,2.78
2023-05-14T11:24:14.691Z,2.92
2023-05-14T11:29:19.177Z,2.60
2023-05-14T11:34:24.064Z,2.40
2023-05-14T11:39:27.305Z,2.83
2023-05-14T11:44:30.422Z,2.90
2023-05-14T11:49:37.521Z,2.72
2023-05-14T11:54:40.814Z,2.67
2023-05-14T11:59:45.036Z,2.90
2023-05-14T12:04:53.294Z,2.83
2023-05-14T12:10:01.974Z,2.50
2023-05-14T12:15:12.812Z,2.40
2023-05-14T12:20:18.524Z,2.20
2023-05-14T12:25:21.791Z,2.50
2023-05-14T12:30:25.270Z,2.15
2023-05-14T12:35:30.609Z,2.30
2023-05-14T12:40:33.873Z,2.50
2023-05-14T12:45:36.983Z,2.45
2023-05-14T12:50:41.840Z,2.65
2023-05-14T12:55:45.183Z,2.80
2023-05-14T13:00:48.654Z,2.08
2023-05-14T13:05:55.151Z,2.22
2023-05-14T13:10:58.809Z,2.40
2023-05-14T13:16:02.181Z,1.85
2023-05-14T13:21:06.930Z,1.75
2023-05-14T13:26:10.131Z,1.30
2023-05-14T13:31:15.907Z,1.63
2023-05-14T13:36:21.146Z,3.50
2023-05-14T13:41:24.484Z,1.63
2023-05-14T13:46:27.720Z,1.70
2023-05-14T13:51:32.544Z,1.70
2023-05-14T13:56:35.905Z,1.70
2023-05-14T14:01:39.192Z,1.98
2023-05-14T14:06:46.711Z,1.98
2023-05-14T14:11:50.143Z,2.00
2023-05-14T14:16:53.415Z,2.30
2023-05-14T14:21:58.176Z,2.20
2023-05-14T14:27:02.479Z,2.17
2023-05-14T14:32:08.067Z,2.53
2023-05-14T14:37:12.933Z,2.20
2023-05-14T14:42:16.150Z,2.53
2023-05-14T14:47:19.432Z,2.22
2023-05-14T14:52:24.641Z,2.28
2023-05-14T14:57:30.140Z,2.03
2023-05-14T15:02:33.640Z,2.70
2023-05-14T15:07:40.683Z,2.35
2023-05-14T15:12:44.578Z,3.63
2023-05-14T15:17:47.993Z,2.30
2023-05-14T15:22:53.970Z,2.45
2023-05-14T15:27:57.179Z,2.03
2023-05-14T15:33:03.127Z,2.67
2023-05-14T15:38:08.366Z,3.50
2023-05-14T15:43:14.205Z,3.45
2023-05-14T15:48:17.738Z,2.65
2023-05-14T15:53:28.116Z,3.03
2023-05-14T15:58:34.049Z,3.38
2023-05-14T16:03:37.552Z,3.17
2023-05-14T16:08:46.402Z,3.97
2023-05-14T16:13:49.934Z,2.80
2023-05-14T16:18:53.083Z,2.72
2023-05-14T16:23:57.772Z,3.00
2023-05-14T16:29:00.987Z,2.60
2023-05-14T16:34:05.974Z,2.47
2023-05-14T16:39:11.598Z,2.50
2023-05-14T16:44:14.838Z,2.90
2023-05-14T16:49:22.355Z,2.53
2023-05-14T16:54:29.957Z,2.60
2023-05-14T16:59:36.436Z,2.22
2023-05-14T17:04:42.331Z,2.90
2023-05-14T17:09:47.148Z,2.50
2023-05-14T17:14:50.481Z,2.20
2023-05-14T17:19:53.996Z,1.92
2023-05-14T17:24:58.724Z,1.90
2023-05-14T17:30:02.290Z,2.15
2023-05-14T17:35:06.633Z,2.50
2023-05-14T17:40:12.530Z,1.90
2023-05-14T17:45:20.789Z,2.10
2023-05-14T17:50:24.327Z,1.98
2023-05-14T17:55:29.070Z,1.60
2023-05-14T18:00:32.546Z,1.50
2023-05-14T18:05:36.165Z,1.90
2023-05-14T18:10:40.849Z,1.90
2023-05-14T18:15:44.435Z,2.10
2023-05-14T18:20:47.859Z,2.15
2023-05-14T18:25:52.630Z,1.60
2023-05-14T18:30:56.160Z,2.13
2023-05-14T18:35:59.810Z,2.10
2023-05-14T18:41:04.565Z,2.30
2023-05-14T18:46:07.968Z,2.28
2023-05-14T18:51:12.480Z,2.20
2023-05-14T18:56:17.175Z,2.22
2023-05-14T19:01:21.280Z,2.30
2023-05-14T19:06:24.913Z,2.53
2023-05-14T19:11:45.175Z,2.28
2023-05-14T19:16:49.392Z,2.28
2023-05-14T19:21:55.004Z,1.88
2023-05-14T19:27:02.663Z,2.20
2023-05-14T19:32:06.933Z,2.25
2023-05-14T19:37:10.234Z,2.40
2023-05-14T19:42:14.843Z,2.20
2023-05-14T19:47:18.226Z,2.33
2023-05-14T19:52:21.642Z,2.35
2023-05-14T19:57:26.637Z,2.28
2023-05-14T20:02:30.213Z,2.20
2023-05-14T20:07:34.107Z,2.20
2023-05-14T20:12:38.945Z,2.28
2023-05-14T20:17:44.943Z,2.33
2023-05-14T20:22:48.244Z,2.65
2023-05-14T20:27:53.481Z,2.63
2023-05-14T20:32:57.517Z,2.78
2023-05-14T20:38:03.605Z,2.78
2023-05-14T20:43:08.275Z,3.17
2023-05-14T20:48:15.133Z,3.47
2023-05-14T20:53:18.385Z,3.38
2023-05-14T20:58:22.992Z,2.95
2023-05-14T21:03:28.116Z,3.50
2023-05-14T21:08:33.078Z,3.13
2023-05-14T21:13:38.298Z,3.40
2023-05-14T21:18:41.669Z,3.70
2023-05-14T21:23:45.046Z,3.63
2023-05-14T21:28:49.973Z,3.60
2023-05-14T21:33:53.566Z,3.70
2023-05-14T21:38:56.781Z,4.18
2023-05-14T21:44:01.397Z,4.03
2023-05-14T21:49:05.052Z,4.00
2023-05-14T21:54:09.069Z,3.83
2023-05-14T21:59:13.770Z,4.57
2023-05-14T22:04:17.802Z,4.30
2023-05-14T22:09:21.210Z,3.90
2023-05-14T22:14:27.453Z,3.80
2023-05-14T22:19:31.346Z,4.28
2023-05-14T22:24:34.935Z,5.10
2023-05-14T22:29:39.524Z,5.38
2023-05-14T22:34:42.696Z,5.25
2023-05-14T22:39:46.084Z,4.88
2023-05-14T22:44:50.746Z,5.05
2023-05-14T22:49:54.096Z,5.00
2023-05-14T22:54:57.298Z,4.97
2023-05-14T23:00:01.914Z,5.20
2023-05-14T23:05:05.833Z,5.20
2023-05-14T23:10:09.697Z,5.25
2023-05-14T23:15:14.468Z,4.70
2023-05-14T23:20:20.442Z,4.63
2023-05-14T23:25:23.814Z,5.20
2023-05-14T23:30:28.536Z,4.72
2023-05-14T23:35:35.300Z,5.25
2023-05-14T23:40:38.847Z,5.45
2023-05-14T23:45:43.671Z,5.05
2023-05-14T23:50:46.827Z,4.72
2023-05-14T23:55:50.562Z,5.22
